sensor_id;sensor_type;location;lat;lon;timestamp;P1;durP1;ratioP1;P2;durP2;ratioP2
51194;SDS011;37259;49.972;19.850;2023-05-10T00:00:56;11;;;4.7;;
51194;SDS011;37259;49.972;19.850;2023-05-10T00:01:56;11;;;4.7;;
51194;SDS011;37259;49.972;19.850;2023-05-10T00:02:56;11;;;4.7;;
51194;SDS011;37259;49.972;19.850;2023-05-10T00:03:56;11;;;4.7;;
51194;SDS011;37259;49.972;19.850;2023-05-10T00:04:56;11;;;4.7;;
51194;SDS011;37259;49.972;19.850;2023-05-10T00:05:56;11;;;4.7;;
51194;SDS011;37259;49.972;19.850;2023-05-10T00:06:56;11;;;4.7;;
51194;SDS011;37259;49.972;19.850;2023-05-10T00:07:56;9.3;;;3.9;;
51194;SDS011;37259;49.972;19.850;2023-05-10T00:08:56;9.3;;;3.9;;
51194;SDS011;37259;49.972;19.850;2023-05-10T00:09:56;9.3;;;3.9;;
51194;SDS011;37259;49.972;19.850;2023-05-10T00:10:56;9.3;;;3.9;;
51194;SDS011;37259;49.972;19.850;2023-05-10T00:11:56;9.3;;;3.9;;
51194;SDS011;37259;49.972;19.850;2023-05-10T00:12:56;9.3;;;3.9;;
51194;SDS011;37259;49.972;19.850;2023-05-10T00:13:56;9.3;;;3.9;;
51194;SDS011;37259;49.972;19.850;2023-05-10T00:14:56;9.3;;;3.9;;
51194;SDS011;37259;49.972;19.850;2023-05-10T00:15:56;9.3;;;3.9;;
51194;SDS011;37259;49.972;19.850;2023-05-10T00:16:56;9.3;;;3.9;;
51194;SDS011;37259;49.972;19.850;2023-05-10T00:17:56;9.3;;;3.9;;
51194;SDS011;37259;49.972;19.850;2023-05-10T00:18:56;9.3;;;3.9;;
51194;SDS011;37259;49.972;19.850;2023-05-10T00:19:56;9.3;;;3.9;;
51194;SDS011;37259;49.972;19.850;2023-05-10T00:20:56;9.3;;;3.9;;
51194;SDS011;37259;49.972;19.850;2023-05-10T00:21:56;9.3;;;3.9;;
51194;SDS011;37259;49.972;19.850;2023-05-10T00:22:56;9.3;;;3.9;;
51194;SDS011;37259;49.972;19.850;2023-05-10T00:23:56;9.3;;;3.9;;
51194;SDS011;37259;49.972;19.850;2023-05-10T00:24:56;9.3;;;3.9;;
51194;SDS011;37259;49.972;19.850;2023-05-10T00:25:56;9.3;;;3.9;;
51194;SDS011;37259;49.972;19.850;2023-05-10T00:26:56;9.3;;;3.9;;
51194;SDS011;37259;49.972;19.850;2023-05-10T00:27:56;9.3;;;3.9;;
51194;SDS011;37259;49.972;19.850;2023-05-10T00:28:56;9.3;;;3.9;;
51194;SDS011;37259;49.972;19.850;2023-05-10T00:29:56;9.3;;;3.9;;
51194;SDS011;37259;49.972;19.850;2023-05-10T00:30:56;9.3;;;3.9;;
51194;SDS011;37259;49.972;19.850;2023-05-10T00:31:56;9.3;;;3.9;;
51194;SDS011;37259;49.972;19.850;2023-05-10T00:32:56;9.3;;;3.9;;
51194;SDS011;37259;49.972;19.850;2023-05-10T00:33:56;9.3;;;3.9;;
51194;SDS011;37259;49.972;19.850;2023-05-10T00:34:56;9.3;;;3.9;;
51194;SDS011;37259;49.972;19.850;2023-05-10T00:35:56;9.3;;;3.9;;
51194;SDS011;37259;49.972;19.850;2023-05-10T00:36:56;9.3;;;3.9;;
51194;SDS011;37259;49.972;19.850;2023-05-10T00:37:56;9.5;;;4.9;;
51194;SDS011;37259;49.972;19.850;2023-05-10T00:38:56;9.5;;;4.9;;
51194;SDS011;37259;49.972;19.850;2023-05-10T00:39:56;9.5;;;4.9;;
51194;SDS011;37259;49.972;19.850;2023-05-10T00:40:56;9.5;;;4.9;;
51194;SDS011;37259;49.972;19.850;2023-05-10T00:41:56;9.5;;;4.9;;
51194;SDS011;37259;49.972;19.850;2023-05-10T00:42:56;9.5;;;4.9;;
51194;SDS011;37259;49.972;19.850;2023-05-10T00:43:56;9.5;;;4.9;;
51194;SDS011;37259;49.972;19.850;2023-05-10T00:44:56;9.5;;;4.9;;
51194;SDS011;37259;49.972;19.850;2023-05-10T00:45:56;9.5;;;4.9;;
51194;SDS011;37259;49.972;19.850;2023-05-10T00:46:56;9.5;;;4.9;;
51194;SDS011;37259;49.972;19.850;2023-05-10T00:47:56;9.5;;;4.9;;
51194;SDS011;37259;49.972;19.850;2023-05-10T00:48:56;9.5;;;4.9;;
51194;SDS011;37259;49.972;19.850;2023-05-10T00:49:56;9.5;;;4.9;;
51194;SDS011;37259;49.972;19.850;2023-05-10T00:50:56;9.5;;;4.9;;
51194;SDS011;37259;49.972;19.850;2023-05-10T00:51:56;9.5;;;4.9;;
51194;SDS011;37259;49.972;19.850;2023-05-10T00:52:56;9.5;;;4.9;;
51194;SDS011;37259;49.972;19.850;2023-05-10T00:53:56;9.5;;;4.9;;
51194;SDS011;37259;49.972;19.850;2023-05-10T00:54:56;9.5;;;4.9;;
51194;SDS011;37259;49.972;19.850;2023-05-10T00:55:56;9.5;;;4.9;;
51194;SDS011;37259;49.972;19.850;2023-05-10T00:56:56;9.5;;;4.9;;
51194;SDS011;37259;49.972;19.850;2023-05-10T00:57:56;9.5;;;4.9;;
51194;SDS011;37259;49.972;19.850;2023-05-10T00:58:56;9.5;;;4.9;;
51194;SDS011;37259;49.972;19.850;2023-05-10T00:59:56;9.5;;;4.9;;
51194;SDS011;37259;49.972;19.850;2023-05-10T01:00:56;9.5;;;4.9;;
51194;SDS011;37259;49.972;19.850;2023-05-10T01:01:56;9.5;;;4.9;;
51194;SDS011;37259;49.972;19.850;2023-05-10T01:02:56;9.5;;;4.9;;
51194;SDS011;37259;49.972;19.850;2023-05-10T01:03:56;9.5;;;4.9;;
51194;SDS011;37259;49.972;19.850;2023-05-10T01:04:56;9.5;;;4.9;;
51194;SDS011;37259;49.972;19.850;2023-05-10T01:05:56;9.5;;;4.9;;
51194;SDS011;37259;49.972;19.850;2023-05-10T01:06:56;9.5;;;4.9;;
51194;SDS011;37259;49.972;19.850;2023-05-10T01:07:56;9.2;;;4.2;;
51194;SDS011;37259;49.972;19.850;2023-05-10T01:08:56;9.2;;;4.2;;
51194;SDS011;37259;49.972;19.850;2023-05-10T01:09:56;9.2;;;4.2;;
51194;SDS011;37259;49.972;19.850;2023-05-10T01:10:56;9.2;;;4.2;;
51194;SDS011;37259;49.972;19.850;2023-05-10T01:11:56;9.2;;;4.2;;
51194;SDS011;37259;49.972;19.850;2023-05-10T01:12:56;9.2;;;4.2;;
51194;SDS011;37259;49.972;19.850;2023-05-10T01:13:56;9.2;;;4.2;;
51194;SDS011;37259;49.972;19.850;2023-05-10T01:14:56;9.2;;;4.2;;
51194;SDS011;37259;49.972;19.850;2023-05-10T01:15:56;9.2;;;4.2;;
51194;SDS011;37259;49.972;19.850;2023-05-10T01:16:56;9.2;;;4.2;;
51194;SDS011;37259;49.972;19.850;2023-05-10T01:17:56;9.2;;;4.2;;
51194;SDS011;37259;49.972;19.850;2023-05-10T01:18:56;9.2;;;4.2;;
51194;SDS011;37259;49.972;19.850;2023-05-10T01:19:56;9.2;;;4.2;;
51194;SDS011;37259;49.972;19.850;2023-05-10T01:20:58;9.2;;;4.2;;
51194;SDS011;37259;49.972;19.850;2023-05-10T01:21:58;9.2;;;4.2;;
51194;SDS011;37259;49.972;19.850;2023-05-10T01:23:17;9.2;;;4.2;;
51194;SDS011;37259;49.972;19.850;2023-05-10T01:24:58;9.2;;;4.2;;
51194;SDS011;37259;49.972;19.850;2023-05-10T01:25:05;9.2;;;4.2;;
51194;SDS011;37259;49.972;19.850;2023-05-10T01:27:02;9.2;;;4.2;;
51194;SDS011;37259;49.972;19.850;2023-05-10T01:27:02;9.2;;;4.2;;
51194;SDS011;37259;49.972;19.850;2023-05-10T01:28:03;9.2;;;4.2;;
51194;SDS011;37259;49.972;19.850;2023-05-10T01:28:58;9.2;;;4.2;;
51194;SDS011;37259;49.972;19.850;2023-05-10T01:31:03;9.2;;;4.2;;
51194;SDS011;37259;49.972;19.850;2023-05-10T01:31:59;9.2;;;4.2;;
51194;SDS011;37259;49.972;19.850;2023-05-10T01:32:56;9.2;;;4.2;;
51194;SDS011;37259;49.972;19.850;2023-05-10T01:33:57;9.2;;;4.2;;
51194;SDS011;37259;49.972;19.850;2023-05-10T01:34:58;9.2;;;4.2;;
51194;SDS011;37259;49.972;19.850;2023-05-10T01:36:01;9.2;;;4.2;;
51194;SDS011;37259;49.972;19.850;2023-05-10T01:36:58;9.2;;;4.2;;
51194;SDS011;37259;49.972;19.850;2023-05-10T01:37:57;7.9;;;3.8;;
51194;SDS011;37259;49.972;19.850;2023-05-10T01:38:57;7.9;;;3.8;;
51194;SDS011;37259;49.972;19.850;2023-05-10T01:39:58;7.9;;;3.8;;
51194;SDS011;37259;49.972;19.850;2023-05-10T01:40:58;7.9;;;3.8;;
51194;SDS011;37259;49.972;19.850;2023-05-10T01:41:57;7.9;;;3.8;;
51194;SDS011;37259;49.972;19.850;2023-05-10T01:43:07;7.9;;;3.8;;
51194;SDS011;37259;49.972;19.850;2023-05-10T01:43:57;7.9;;;3.8;;
51194;SDS011;37259;49.972;19.850;2023-05-10T01:44:56;7.9;;;3.8;;
51194;SDS011;37259;49.972;19.850;2023-05-10T01:45:59;7.9;;;3.8;;
51194;SDS011;37259;49.972;19.850;2023-05-10T01:46:58;7.9;;;3.8;;
51194;SDS011;37259;49.972;19.850;2023-05-10T01:47:58;7.9;;;3.8;;
51194;SDS011;37259;49.972;19.850;2023-05-10T01:48:56;7.9;;;3.8;;
51194;SDS011;37259;49.972;19.850;2023-05-10T01:49:56;7.9;;;3.8;;
51194;SDS011;37259;49.972;19.850;2023-05-10T01:50:56;7.9;;;3.8;;
51194;SDS011;37259;49.972;19.850;2023-05-10T01:51:57;7.9;;;3.8;;
51194;SDS011;37259;49.972;19.850;2023-05-10T01:52:56;7.9;;;3.8;;
51194;SDS011;37259;49.972;19.850;2023-05-10T01:53:58;7.9;;;3.8;;
51194;SDS011;37259;49.972;19.850;2023-05-10T01:54:58;7.9;;;3.8;;
51194;SDS011;37259;49.972;19.850;2023-05-10T01:55:56;7.9;;;3.8;;
51194;SDS011;37259;49.972;19.850;2023-05-10T01:56:58;7.9;;;3.8;;
51194;SDS011;37259;49.972;19.850;2023-05-10T01:58:06;7.9;;;3.8;;
51194;SDS011;37259;49.972;19.850;2023-05-10T01:58:56;7.9;;;3.8;;
51194;SDS011;37259;49.972;19.850;2023-05-10T01:59:56;7.9;;;3.8;;
51194;SDS011;37259;49.972;19.850;2023-05-10T02:00:56;7.9;;;3.8;;
51194;SDS011;37259;49.972;19.850;2023-05-10T02:01:56;7.9;;;3.8;;
51194;SDS011;37259;49.972;19.850;2023-05-10T02:02:56;7.9;;;3.8;;
51194;SDS011;37259;49.972;19.850;2023-05-10T02:03:56;7.9;;;3.8;;
51194;SDS011;37259;49.972;19.850;2023-05-10T02:04:56;7.9;;;3.8;;
51194;SDS011;37259;49.972;19.850;2023-05-10T02:05:56;7.9;;;3.8;;
51194;SDS011;37259;49.972;19.850;2023-05-10T02:06:56;7.9;;;3.8;;
51194;SDS011;37259;49.972;19.850;2023-05-10T02:07:56;9.3;;;4.6;;
51194;SDS011;37259;49.972;19.850;2023-05-10T02:08:56;9.3;;;4.6;;
51194;SDS011;37259;49.972;19.850;2023-05-10T02:09:56;9.3;;;4.6;;
51194;SDS011;37259;49.972;19.850;2023-05-10T02:10:56;9.3;;;4.6;;
51194;SDS011;37259;49.972;19.850;2023-05-10T02:11:56;9.3;;;4.6;;
51194;SDS011;37259;49.972;19.850;2023-05-10T02:12:56;9.3;;;4.6;;
51194;SDS011;37259;49.972;19.850;2023-05-10T02:13:56;9.3;;;4.6;;
51194;SDS011;37259;49.972;19.850;2023-05-10T02:14:56;9.3;;;4.6;;
51194;SDS011;37259;49.972;19.850;2023-05-10T02:15:56;9.3;;;4.6;;
51194;SDS011;37259;49.972;19.850;2023-05-10T02:16:56;9.3;;;4.6;;
51194;SDS011;37259;49.972;19.850;2023-05-10T02:17:56;9.3;;;4.6;;
51194;SDS011;37259;49.972;19.850;2023-05-10T02:18:56;9.3;;;4.6;;
51194;SDS011;37259;49.972;19.850;2023-05-10T02:19:56;9.3;;;4.6;;
51194;SDS011;37259;49.972;19.850;2023-05-10T02:20:56;9.3;;;4.6;;
51194;SDS011;37259;49.972;19.850;2023-05-10T02:21:56;9.3;;;4.6;;
51194;SDS011;37259;49.972;19.850;2023-05-10T02:22:56;9.3;;;4.6;;
51194;SDS011;37259;49.972;19.850;2023-05-10T02:23:56;9.3;;;4.6;;
51194;SDS011;37259;49.972;19.850;2023-05-10T02:24:56;9.3;;;4.6;;
51194;SDS011;37259;49.972;19.850;2023-05-10T02:25:56;9.3;;;4.6;;
51194;SDS011;37259;49.972;19.850;2023-05-10T02:26:56;9.3;;;4.6;;
51194;SDS011;37259;49.972;19.850;2023-05-10T02:27:56;9.3;;;4.6;;
51194;SDS011;37259;49.972;19.850;2023-05-10T02:28:56;9.3;;;4.6;;
51194;SDS011;37259;49.972;19.850;2023-05-10T02:29:56;9.3;;;4.6;;
51194;SDS011;37259;49.972;19.850;2023-05-10T02:30:56;9.3;;;4.6;;
51194;SDS011;37259;49.972;19.850;2023-05-10T02:31:56;9.3;;;4.6;;
51194;SDS011;37259;49.972;19.850;2023-05-10T02:32:56;9.3;;;4.6;;
51194;SDS011;37259;49.972;19.850;2023-05-10T02:33:56;9.3;;;4.6;;
51194;SDS011;37259;49.972;19.850;2023-05-10T02:34:56;9.3;;;4.6;;
51194;SDS011;37259;49.972;19.850;2023-05-10T02:35:56;9.3;;;4.6;;
51194;SDS011;37259;49.972;19.850;2023-05-10T02:36:56;9.3;;;4.6;;
51194;SDS011;37259;49.972;19.850;2023-05-10T02:37:56;10.6;;;5.8;;
51194;SDS011;37259;49.972;19.850;2023-05-10T02:38:56;10.6;;;5.8;;
51194;SDS011;37259;49.972;19.850;2023-05-10T02:39:56;10.6;;;5.8;;
51194;SDS011;37259;49.972;19.850;2023-05-10T02:40:56;10.6;;;5.8;;
51194;SDS011;37259;49.972;19.850;2023-05-10T02:41:56;10.6;;;5.8;;
51194;SDS011;37259;49.972;19.850;2023-05-10T02:42:56;10.6;;;5.8;;
51194;SDS011;37259;49.972;19.850;2023-05-10T02:43:57;10.6;;;5.8;;
51194;SDS011;37259;49.972;19.850;2023-05-10T02:44:59;10.6;;;5.8;;
51194;SDS011;37259;49.972;19.850;2023-05-10T02:45:56;10.6;;;5.8;;
51194;SDS011;37259;49.972;19.850;2023-05-10T02:46:56;10.6;;;5.8;;
51194;SDS011;37259;49.972;19.850;2023-05-10T02:47:56;10.6;;;5.8;;
51194;SDS011;37259;49.972;19.850;2023-05-10T02:48:56;10.6;;;5.8;;
51194;SDS011;37259;49.972;19.850;2023-05-10T02:49:56;10.6;;;5.8;;
51194;SDS011;37259;49.972;19.850;2023-05-10T02:50:56;10.6;;;5.8;;
51194;SDS011;37259;49.972;19.850;2023-05-10T02:51:57;10.6;;;5.8;;
51194;SDS011;37259;49.972;19.850;2023-05-10T02:52:58;10.6;;;5.8;;
51194;SDS011;37259;49.972;19.850;2023-05-10T02:53:56;10.6;;;5.8;;
51194;SDS011;37259;49.972;19.850;2023-05-10T02:54:58;10.6;;;5.8;;
51194;SDS011;37259;49.972;19.850;2023-05-10T02:55:57;10.6;;;5.8;;
51194;SDS011;37259;49.972;19.850;2023-05-10T02:56:57;10.6;;;5.8;;
51194;SDS011;37259;49.972;19.850;2023-05-10T02:57:57;10.6;;;5.8;;
51194;SDS011;37259;49.972;19.850;2023-05-10T02:58:56;10.6;;;5.8;;
51194;SDS011;37259;49.972;19.850;2023-05-10T02:59:56;10.6;;;5.8;;
51194;SDS011;37259;49.972;19.850;2023-05-10T03:00:56;10.6;;;5.8;;
51194;SDS011;37259;49.972;19.850;2023-05-10T03:01:56;10.6;;;5.8;;
51194;SDS011;37259;49.972;19.850;2023-05-10T03:02:56;10.6;;;5.8;;
51194;SDS011;37259;49.972;19.850;2023-05-10T03:03:56;10.6;;;5.8;;
51194;SDS011;37259;49.972;19.850;2023-05-10T03:04:56;10.6;;;5.8;;
51194;SDS011;37259;49.972;19.850;2023-05-10T03:05:56;10.6;;;5.8;;
51194;SDS011;37259;49.972;19.850;2023-05-10T03:06:56;10.6;;;5.8;;
51194;SDS011;37259;49.972;19.850;2023-05-10T03:07:56;8.2;;;4.3;;
51194;SDS011;37259;49.972;19.850;2023-05-10T03:08:56;8.2;;;4.3;;
51194;SDS011;37259;49.972;19.850;2023-05-10T03:09:56;8.2;;;4.3;;
51194;SDS011;37259;49.972;19.850;2023-05-10T03:11:01;8.2;;;4.3;;
51194;SDS011;37259;49.972;19.850;2023-05-10T03:11:56;8.2;;;4.3;;
51194;SDS011;37259;49.972;19.850;2023-05-10T03:12:58;8.2;;;4.3;;
51194;SDS011;37259;49.972;19.850;2023-05-10T03:13:56;8.2;;;4.3;;
51194;SDS011;37259;49.972;19.850;2023-05-10T03:14:57;8.2;;;4.3;;
51194;SDS011;37259;49.972;19.850;2023-05-10T03:15:57;8.2;;;4.3;;
51194;SDS011;37259;49.972;19.850;2023-05-10T03:16:56;8.2;;;4.3;;
51194;SDS011;37259;49.972;19.850;2023-05-10T03:17:57;8.2;;;4.3;;
51194;SDS011;37259;49.972;19.850;2023-05-10T03:18:56;8.2;;;4.3;;
51194;SDS011;37259;49.972;19.850;2023-05-10T03:19:56;8.2;;;4.3;;
51194;SDS011;37259;49.972;19.850;2023-05-10T03:20:57;8.2;;;4.3;;
51194;SDS011;37259;49.972;19.850;2023-05-10T03:21:57;8.2;;;4.3;;
51194;SDS011;37259;49.972;19.850;2023-05-10T03:22:59;8.2;;;4.3;;
51194;SDS011;37259;49.972;19.850;2023-05-10T03:23:57;8.2;;;4.3;;
51194;SDS011;37259;49.972;19.850;2023-05-10T03:24:56;8.2;;;4.3;;
51194;SDS011;37259;49.972;19.850;2023-05-10T03:25:56;8.2;;;4.3;;
51194;SDS011;37259;49.972;19.850;2023-05-10T03:26:56;8.2;;;4.3;;
51194;SDS011;37259;49.972;19.850;2023-05-10T03:27:56;8.2;;;4.3;;
51194;SDS011;37259;49.972;19.850;2023-05-10T03:28:56;8.2;;;4.3;;
51194;SDS011;37259;49.972;19.850;2023-05-10T03:29:56;8.2;;;4.3;;
51194;SDS011;37259;49.972;19.850;2023-05-10T03:30:56;8.2;;;4.3;;
51194;SDS011;37259;49.972;19.850;2023-05-10T03:31:57;8.2;;;4.3;;
51194;SDS011;37259;49.972;19.850;2023-05-10T03:32:56;8.2;;;4.3;;
51194;SDS011;37259;49.972;19.850;2023-05-10T03:33:56;8.2;;;4.3;;
51194;SDS011;37259;49.972;19.850;2023-05-10T03:34:56;8.2;;;4.3;;
51194;SDS011;37259;49.972;19.850;2023-05-10T03:35:56;8.2;;;4.3;;
51194;SDS011;37259;49.972;19.850;2023-05-10T03:36:56;8.2;;;4.3;;
51194;SDS011;37259;49.972;19.850;2023-05-10T03:37:56;8.6;;;4.7;;
51194;SDS011;37259;49.972;19.850;2023-05-10T03:38:56;8.6;;;4.7;;
51194;SDS011;37259;49.972;19.850;2023-05-10T03:39:56;8.6;;;4.7;;
51194;SDS011;37259;49.972;19.850;2023-05-10T03:40:56;8.6;;;4.7;;
51194;SDS011;37259;49.972;19.850;2023-05-10T03:41:56;8.6;;;4.7;;
51194;SDS011;37259;49.972;19.850;2023-05-10T03:42:56;8.6;;;4.7;;
51194;SDS011;37259;49.972;19.850;2023-05-10T03:43:56;8.6;;;4.7;;
51194;SDS011;37259;49.972;19.850;2023-05-10T03:44:56;8.6;;;4.7;;
51194;SDS011;37259;49.972;19.850;2023-05-10T03:45:56;8.6;;;4.7;;
51194;SDS011;37259;49.972;19.850;2023-05-10T03:46:56;8.6;;;4.7;;
51194;SDS011;37259;49.972;19.850;2023-05-10T03:47:56;8.6;;;4.7;;
51194;SDS011;37259;49.972;19.850;2023-05-10T03:48:56;8.6;;;4.7;;
51194;SDS011;37259;49.972;19.850;2023-05-10T03:49:56;8.6;;;4.7;;
51194;SDS011;37259;49.972;19.850;2023-05-10T03:50:56;8.6;;;4.7;;
51194;SDS011;37259;49.972;19.850;2023-05-10T03:51:56;8.6;;;4.7;;
51194;SDS011;37259;49.972;19.850;2023-05-10T03:52:56;8.6;;;4.7;;
51194;SDS011;37259;49.972;19.850;2023-05-10T03:53:56;8.6;;;4.7;;
51194;SDS011;37259;49.972;19.850;2023-05-10T03:54:56;8.6;;;4.7;;
51194;SDS011;37259;49.972;19.850;2023-05-10T03:55:56;8.6;;;4.7;;
51194;SDS011;37259;49.972;19.850;2023-05-10T03:56:56;8.6;;;4.7;;
51194;SDS011;37259;49.972;19.850;2023-05-10T03:57:56;8.6;;;4.7;;
51194;SDS011;37259;49.972;19.850;2023-05-10T03:58:56;8.6;;;4.7;;
51194;SDS011;37259;49.972;19.850;2023-05-10T03:59:56;8.6;;;4.7;;
51194;SDS011;37259;49.972;19.850;2023-05-10T04:00:56;8.6;;;4.7;;
51194;SDS011;37259;49.972;19.850;2023-05-10T04:01:56;8.6;;;4.7;;
51194;SDS011;37259;49.972;19.850;2023-05-10T04:02:56;8.6;;;4.7;;
51194;SDS011;37259;49.972;19.850;2023-05-10T04:03:56;8.6;;;4.7;;
51194;SDS011;37259;49.972;19.850;2023-05-10T04:04:56;8.6;;;4.7;;
51194;SDS011;37259;49.972;19.850;2023-05-10T04:05:59;8.6;;;4.7;;
51194;SDS011;37259;49.972;19.850;2023-05-10T04:06:56;8.6;;;4.7;;
51194;SDS011;37259;49.972;19.850;2023-05-10T04:07:56;10.8;;;5.7;;
51194;SDS011;37259;49.972;19.850;2023-05-10T04:08:56;10.8;;;5.7;;
51194;SDS011;37259;49.972;19.850;2023-05-10T04:09:56;10.8;;;5.7;;
51194;SDS011;37259;49.972;19.850;2023-05-10T04:11:04;10.8;;;5.7;;
51194;SDS011;37259;49.972;19.850;2023-05-10T04:11:56;10.8;;;5.7;;
51194;SDS011;37259;49.972;19.850;2023-05-10T04:12:56;10.8;;;5.7;;
51194;SDS011;37259;49.972;19.850;2023-05-10T04:13:56;10.8;;;5.7;;
51194;SDS011;37259;49.972;19.850;2023-05-10T04:14:56;10.8;;;5.7;;
51194;SDS011;37259;49.972;19.850;2023-05-10T04:15:56;10.8;;;5.7;;
51194;SDS011;37259;49.972;19.850;2023-05-10T04:16:56;10.8;;;5.7;;
51194;SDS011;37259;49.972;19.850;2023-05-10T04:17:56;10.8;;;5.7;;
51194;SDS011;37259;49.972;19.850;2023-05-10T04:18:56;10.8;;;5.7;;
51194;SDS011;37259;49.972;19.850;2023-05-10T04:19:56;10.8;;;5.7;;
51194;SDS011;37259;49.972;19.850;2023-05-10T04:20:56;10.8;;;5.7;;
51194;SDS011;37259;49.972;19.850;2023-05-10T04:21:56;10.8;;;5.7;;
51194;SDS011;37259;49.972;19.850;2023-05-10T04:22:56;10.8;;;5.7;;
51194;SDS011;37259;49.972;19.850;2023-05-10T04:23:56;10.8;;;5.7;;
51194;SDS011;37259;49.972;19.850;2023-05-10T04:24:56;10.8;;;5.7;;
51194;SDS011;37259;49.972;19.850;2023-05-10T04:25:59;10.8;;;5.7;;
51194;SDS011;37259;49.972;19.850;2023-05-10T04:26:56;10.8;;;5.7;;
51194;SDS011;37259;49.972;19.850;2023-05-10T04:27:56;10.8;;;5.7;;
51194;SDS011;37259;49.972;19.850;2023-05-10T04:28:56;10.8;;;5.7;;
51194;SDS011;37259;49.972;19.850;2023-05-10T04:29:56;10.8;;;5.7;;
51194;SDS011;37259;49.972;19.850;2023-05-10T04:31:00;10.8;;;5.7;;
51194;SDS011;37259;49.972;19.850;2023-05-10T04:31:56;10.8;;;5.7;;
51194;SDS011;37259;49.972;19.850;2023-05-10T04:32:56;10.8;;;5.7;;
51194;SDS011;37259;49.972;19.850;2023-05-10T04:33:56;10.8;;;5.7;;
51194;SDS011;37259;49.972;19.850;2023-05-10T04:34:56;10.8;;;5.7;;
51194;SDS011;37259;49.972;19.850;2023-05-10T04:35:56;10.8;;;5.7;;
51194;SDS011;37259;49.972;19.850;2023-05-10T04:36:56;10.8;;;5.7;;
51194;SDS011;37259;49.972;19.850;2023-05-10T04:37:56;8.1;;;5.2;;
51194;SDS011;37259;49.972;19.850;2023-05-10T04:38:56;8.1;;;5.2;;
51194;SDS011;37259;49.972;19.850;2023-05-10T04:39:56;8.1;;;5.2;;
51194;SDS011;37259;49.972;19.850;2023-05-10T04:41:03;8.1;;;5.2;;
51194;SDS011;37259;49.972;19.850;2023-05-10T04:41:56;8.1;;;5.2;;
51194;SDS011;37259;49.972;19.850;2023-05-10T04:42:56;8.1;;;5.2;;
51194;SDS011;37259;49.972;19.850;2023-05-10T04:43:56;8.1;;;5.2;;
51194;SDS011;37259;49.972;19.850;2023-05-10T04:44:56;8.1;;;5.2;;
51194;SDS011;37259;49.972;19.850;2023-05-10T04:45:56;8.1;;;5.2;;
51194;SDS011;37259;49.972;19.850;2023-05-10T04:46:56;8.1;;;5.2;;
51194;SDS011;37259;49.972;19.850;2023-05-10T04:47:56;8.1;;;5.2;;
51194;SDS011;37259;49.972;19.850;2023-05-10T04:48:56;8.1;;;5.2;;
51194;SDS011;37259;49.972;19.850;2023-05-10T04:49:56;8.1;;;5.2;;
51194;SDS011;37259;49.972;19.850;2023-05-10T04:50:56;8.1;;;5.2;;
51194;SDS011;37259;49.972;19.850;2023-05-10T04:51:56;8.1;;;5.2;;
51194;SDS011;37259;49.972;19.850;2023-05-10T04:52:56;8.1;;;5.2;;
51194;SDS011;37259;49.972;19.850;2023-05-10T04:53:56;8.1;;;5.2;;
51194;SDS011;37259;49.972;19.850;2023-05-10T04:54:56;8.1;;;5.2;;
51194;SDS011;37259;49.972;19.850;2023-05-10T04:55:56;8.1;;;5.2;;
51194;SDS011;37259;49.972;19.850;2023-05-10T04:56:56;8.1;;;5.2;;
51194;SDS011;37259;49.972;19.850;2023-05-10T04:57:56;8.1;;;5.2;;
51194;SDS011;37259;49.972;19.850;2023-05-10T04:58:56;8.1;;;5.2;;
51194;SDS011;37259;49.972;19.850;2023-05-10T04:59:56;8.1;;;5.2;;
51194;SDS011;37259;49.972;19.850;2023-05-10T05:00:56;8.1;;;5.2;;
51194;SDS011;37259;49.972;19.850;2023-05-10T05:01:56;8.1;;;5.2;;
51194;SDS011;37259;49.972;19.850;2023-05-10T05:02:56;8.1;;;5.2;;
51194;SDS011;37259;49.972;19.850;2023-05-10T05:03:56;8.1;;;5.2;;
51194;SDS011;37259;49.972;19.850;2023-05-10T05:04:56;8.1;;;5.2;;
51194;SDS011;37259;49.972;19.850;2023-05-10T05:05:56;8.1;;;5.2;;
51194;SDS011;37259;49.972;19.850;2023-05-10T05:06:56;8;;;4.1;;
51194;SDS011;37259;49.972;19.850;2023-05-10T05:07:56;8;;;4.1;;
51194;SDS011;37259;49.972;19.850;2023-05-10T05:08:56;8;;;4.1;;
51194;SDS011;37259;49.972;19.850;2023-05-10T05:09:56;8;;;4.1;;
51194;SDS011;37259;49.972;19.850;2023-05-10T05:10:56;8;;;4.1;;
51194;SDS011;37259;49.972;19.850;2023-05-10T05:11:56;8;;;4.1;;
51194;SDS011;37259;49.972;19.850;2023-05-10T05:12:56;8;;;4.1;;
51194;SDS011;37259;49.972;19.850;2023-05-10T05:13:56;8;;;4.1;;
51194;SDS011;37259;49.972;19.850;2023-05-10T05:14:56;8;;;4.1;;
51194;SDS011;37259;49.972;19.850;2023-05-10T05:15:56;8;;;4.1;;
51194;SDS011;37259;49.972;19.850;2023-05-10T05:16:56;8;;;4.1;;
51194;SDS011;37259;49.972;19.850;2023-05-10T05:17:56;8;;;4.1;;
51194;SDS011;37259;49.972;19.850;2023-05-10T05:18:56;8;;;4.1;;
51194;SDS011;37259;49.972;19.850;2023-05-10T05:19:56;8;;;4.1;;
51194;SDS011;37259;49.972;19.850;2023-05-10T05:20:56;8;;;4.1;;
51194;SDS011;37259;49.972;19.850;2023-05-10T05:21:56;8;;;4.1;;
51194;SDS011;37259;49.972;19.850;2023-05-10T05:22:56;8;;;4.1;;
51194;SDS011;37259;49.972;19.850;2023-05-10T05:23:56;8;;;4.1;;
51194;SDS011;37259;49.972;19.850;2023-05-10T05:24:56;8;;;4.1;;
51194;SDS011;37259;49.972;19.850;2023-05-10T05:25:56;8;;;4.1;;
51194;SDS011;37259;49.972;19.850;2023-05-10T05:26:56;8;;;4.1;;
51194;SDS011;37259;49.972;19.850;2023-05-10T05:27:56;8;;;4.1;;
51194;SDS011;37259;49.972;19.850;2023-05-10T05:28:56;8;;;4.1;;
51194;SDS011;37259;49.972;19.850;2023-05-10T05:29:56;8;;;4.1;;
51194;SDS011;37259;49.972;19.850;2023-05-10T05:30:56;8;;;4.1;;
51194;SDS011;37259;49.972;19.850;2023-05-10T05:31:56;8;;;4.1;;
51194;SDS011;37259;49.972;19.850;2023-05-10T05:32:56;8;;;4.1;;
51194;SDS011;37259;49.972;19.850;2023-05-10T05:33:56;8;;;4.1;;
51194;SDS011;37259;49.972;19.850;2023-05-10T05:34:56;8;;;4.1;;
51194;SDS011;37259;49.972;19.850;2023-05-10T05:35:56;8;;;4.1;;
51194;SDS011;37259;49.972;19.850;2023-05-10T05:36:56;10;;;5.8;;
51194;SDS011;37259;49.972;19.850;2023-05-10T05:37:56;10;;;5.8;;
51194;SDS011;37259;49.972;19.850;2023-05-10T05:38:56;10;;;5.8;;
51194;SDS011;37259;49.972;19.850;2023-05-10T05:39:56;10;;;5.8;;
51194;SDS011;37259;49.972;19.850;2023-05-10T05:40:56;10;;;5.8;;
51194;SDS011;37259;49.972;19.850;2023-05-10T05:41:56;10;;;5.8;;
51194;SDS011;37259;49.972;19.850;2023-05-10T05:42:56;10;;;5.8;;
51194;SDS011;37259;49.972;19.850;2023-05-10T05:43:56;10;;;5.8;;
51194;SDS011;37259;49.972;19.850;2023-05-10T05:44:56;10;;;5.8;;
51194;SDS011;37259;49.972;19.850;2023-05-10T05:45:56;10;;;5.8;;
51194;SDS011;37259;49.972;19.850;2023-05-10T05:46:56;10;;;5.8;;
51194;SDS011;37259;49.972;19.850;2023-05-10T05:47:56;10;;;5.8;;
51194;SDS011;37259;49.972;19.850;2023-05-10T05:48:56;10;;;5.8;;
51194;SDS011;37259;49.972;19.850;2023-05-10T05:49:56;10;;;5.8;;
51194;SDS011;37259;49.972;19.850;2023-05-10T05:50:56;10;;;5.8;;
51194;SDS011;37259;49.972;19.850;2023-05-10T05:51:58;10;;;5.8;;
51194;SDS011;37259;49.972;19.850;2023-05-10T05:52:56;10;;;5.8;;
51194;SDS011;37259;49.972;19.850;2023-05-10T05:53:56;10;;;5.8;;
51194;SDS011;37259;49.972;19.850;2023-05-10T05:54:56;10;;;5.8;;
51194;SDS011;37259;49.972;19.850;2023-05-10T05:55:56;10;;;5.8;;
51194;SDS011;37259;49.972;19.850;2023-05-10T05:56:56;10;;;5.8;;
51194;SDS011;37259;49.972;19.850;2023-05-10T05:57:56;10;;;5.8;;
51194;SDS011;37259;49.972;19.850;2023-05-10T05:58:56;10;;;5.8;;
51194;SDS011;37259;49.972;19.850;2023-05-10T05:59:56;10;;;5.8;;
51194;SDS011;37259;49.972;19.850;2023-05-10T06:00:56;10;;;5.8;;
51194;SDS011;37259;49.972;19.850;2023-05-10T06:01:56;10;;;5.8;;
51194;SDS011;37259;49.972;19.850;2023-05-10T06:02:56;10;;;5.8;;
51194;SDS011;37259;49.972;19.850;2023-05-10T06:03:56;10;;;5.8;;
51194;SDS011;37259;49.972;19.850;2023-05-10T06:04:56;10;;;5.8;;
51194;SDS011;37259;49.972;19.850;2023-05-10T06:05:56;10;;;5.8;;
51194;SDS011;37259;49.972;19.850;2023-05-10T06:06:56;9.5;;;5;;
51194;SDS011;37259;49.972;19.850;2023-05-10T06:07:56;9.5;;;5;;
51194;SDS011;37259;49.972;19.850;2023-05-10T06:08:56;9.5;;;5;;